sensor_id;sensor_type;location;lat;lon;timestamp;pressure;altitude;pressure_sealevel;temperature
72405;BMP280;60395;52.020;113.548;2022-09-03T00:05:48;92209.34;;;32.48
72405;BMP280;60395;52.020;113.548;2022-09-03T00:12:13;92215.38;;;32.83
72405;BMP280;60395;52.020;113.548;2022-09-03T00:15:20;92223.81;;;30.19
72405;BMP280;60395;52.020;113.548;2022-09-03T00:18:27;92223.91;;;27.60
72405;BMP280;60395;52.020;113.548;2022-09-03T00:21:39;92218.91;;;26.01
72405;BMP280;60395;52.020;113.548;2022-09-03T00:24:43;92217.97;;;24.11
72405;BMP280;60395;52.020;113.548;2022-09-03T00:27:52;92214.78;;;23.14
72405;BMP280;60395;52.020;113.548;2022-09-03T00:37:28;92212.78;;;20.37
72405;BMP280;60395;52.020;113.548;2022-09-03T00:41:05;92202.75;;;19.84
72405;BMP280;60395;52.020;113.548;2022-09-03T00:54:13;92175.78;;;19.35
72405;BMP280;60395;52.020;113.548;2022-09-03T01:00:54;92176.59;;;19.87
72405;BMP280;60395;52.020;113.548;2022-09-03T01:11:09;92165.06;;;19.90
72405;BMP280;60395;52.020;113.548;2022-09-03T01:32:18;92149.06;;;19.14
72405;BMP280;60395;52.020;113.548;2022-09-03T01:35:52;92136.56;;;19.23
72405;BMP280;60395;52.020;113.548;2022-09-03T01:39:02;92138.84;;;19.19
72405;BMP280;60395;52.020;113.548;2022-09-03T01:42:13;92130.19;;;19.08
72405;BMP280;60395;52.020;113.548;2022-09-03T01:49:05;92124.91;;;19.29
72405;BMP280;60395;52.020;113.548;2022-09-03T01:52:26;92121.75;;;19.47
72405;BMP280;60395;52.020;113.548;2022-09-03T02:03:12;92117.47;;;19.84
72405;BMP280;60395;52.020;113.548;2022-09-03T02:06:16;92115.19;;;19.78
72405;BMP280;60395;52.020;113.548;2022-09-03T02:09:22;92111.25;;;19.77
72405;BMP280;60395;52.020;113.548;2022-09-03T02:12:35;92112.53;;;19.78
72405;BMP280;60395;52.020;113.548;2022-09-03T02:15:43;92105.94;;;19.77
72405;BMP280;60395;52.020;113.548;2022-09-03T02:18:54;92103.63;;;19.82
72405;BMP280;60395;52.020;113.548;2022-09-03T02:21:57;92092.22;;;19.83
72405;BMP280;60395;52.020;113.548;2022-09-03T02:25:01;92087.50;;;19.94
72405;BMP280;60395;52.020;113.548;2022-09-03T02:28:06;92079.25;;;20.09
72405;BMP280;60395;52.020;113.548;2022-09-03T02:31:18;92076.28;;;20.23
72405;BMP280;60395;52.020;113.548;2022-09-03T02:34:22;92075.59;;;20.44
72405;BMP280;60395;52.020;113.548;2022-09-03T02:37:25;92073.75;;;20.62
72405;BMP280;60395;52.020;113.548;2022-09-03T02:40:28;92069.13;;;20.71
72405;BMP280;60395;52.020;113.548;2022-09-03T02:47:19;92061.97;;;20.97
72405;BMP280;60395;52.020;113.548;2022-09-03T02:50:23;92057.16;;;20.99
72405;BMP280;60395;52.020;113.548;2022-09-03T02:53:26;92067.22;;;20.99
72405;BMP280;60395;52.020;113.548;2022-09-03T02:56:30;92058.69;;;20.96
72405;BMP280;60395;52.020;113.548;2022-09-03T02:59:34;92046.31;;;21.01
72405;BMP280;60395;52.020;113.548;2022-09-03T03:02:37;92049.84;;;21.09
72405;BMP280;60395;52.020;113.548;2022-09-03T03:05:52;92038.00;;;21.16
72405;BMP280;60395;52.020;113.548;2022-09-03T03:08:57;92024.91;;;21.12
72405;BMP280;60395;52.020;113.548;2022-09-03T03:12:00;92029.47;;;21.14
72405;BMP280;60395;52.020;113.548;2022-09-03T03:15:04;92021.03;;;21.20
72405;BMP280;60395;52.020;113.548;2022-09-03T03:18:07;92020.66;;;21.34
72405;BMP280;60395;52.020;113.548;2022-09-03T03:21:15;92017.13;;;21.46
72405;BMP280;60395;52.020;113.548;2022-09-03T03:24:19;92014.66;;;21.53
72405;BMP280;60395;52.020;113.548;2022-09-03T03:27:22;92011.31;;;21.72
72405;BMP280;60395;52.020;113.548;2022-09-03T03:30:26;92001.47;;;21.87
72405;BMP280;60395;52.020;113.548;2022-09-03T03:33:29;91995.25;;;21.99
72405;BMP280;60395;52.020;113.548;2022-09-03T03:36:32;91995.41;;;22.06
72405;BMP280;60395;52.020;113.548;2022-09-03T03:39:36;91987.56;;;22.12
72405;BMP280;60395;52.020;113.548;2022-09-03T03:42:39;91985.69;;;22.19
72405;BMP280;60395;52.020;113.548;2022-09-03T03:45:42;91983.84;;;22.26
72405;BMP280;60395;52.020;113.548;2022-09-03T03:48:47;91973.94;;;22.42
72405;BMP280;60395;52.020;113.548;2022-09-03T03:51:50;91973.94;;;22.51
72405;BMP280;60395;52.020;113.548;2022-09-03T03:54:53;91967.53;;;22.65
72405;BMP280;60395;52.020;113.548;2022-09-03T03:57:58;91963.13;;;22.78
72405;BMP280;60395;52.020;113.548;2022-09-03T04:04:07;91962.63;;;22.93
72405;BMP280;60395;52.020;113.548;2022-09-03T04:07:10;91948.78;;;22.90
72405;BMP280;60395;52.020;113.548;2022-09-03T04:10:14;91953.84;;;22.86
72405;BMP280;60395;52.020;113.548;2022-09-03T04:13:17;91948.78;;;22.90
72405;BMP280;60395;52.020;113.548;2022-09-03T04:16:26;91938.69;;;23.08
72405;BMP280;60395;52.020;113.548;2022-09-03T04:19:30;91933.31;;;23.25
72405;BMP280;60395;52.020;113.548;2022-09-03T04:22:33;91929.13;;;23.43
72405;BMP280;60395;52.020;113.548;2022-09-03T04:25:36;91931.81;;;23.52
72405;BMP280;60395;52.020;113.548;2022-09-03T04:28:40;91920.88;;;23.62
72405;BMP280;60395;52.020;113.548;2022-09-03T04:31:43;91918.94;;;23.78
72405;BMP280;60395;52.020;113.548;2022-09-03T04:35:06;91907.19;;;23.90
72405;BMP280;60395;52.020;113.548;2022-09-03T04:38:10;91907.13;;;23.99
72405;BMP280;60395;52.020;113.548;2022-09-03T04:41:18;91897.72;;;24.15
72405;BMP280;60395;52.020;113.548;2022-09-03T04:44:22;91894.19;;;24.25
72405;BMP280;60395;52.020;113.548;2022-09-03T04:47:25;91886.53;;;24.36
72405;BMP280;60395;52.020;113.548;2022-09-03T04:50:30;91882.56;;;24.58
72405;BMP280;60395;52.020;113.548;2022-09-03T04:53:36;91884.91;;;24.62
72405;BMP280;60395;52.020;113.548;2022-09-03T04:56:39;91876.13;;;24.70
72405;BMP280;60395;52.020;113.548;2022-09-03T04:59:43;91867.81;;;24.81
72405;BMP280;60395;52.020;113.548;2022-09-03T05:02:46;91866.41;;;24.97
72405;BMP280;60395;52.020;113.548;2022-09-03T05:05:51;91860.13;;;25.22
72405;BMP280;60395;52.020;113.548;2022-09-03T05:08:54;91860.22;;;25.14
72405;BMP280;60395;52.020;113.548;2022-09-03T05:11:57;91856.13;;;25.00
72405;BMP280;60395;52.020;113.548;2022-09-03T05:15:01;91849.13;;;24.88
72405;BMP280;60395;52.020;113.548;2022-09-03T05:18:05;91841.31;;;24.92
72405;BMP280;60395;52.020;113.548;2022-09-03T05:21:11;91838.63;;;24.92
72405;BMP280;60395;52.020;113.548;2022-09-03T05:24:14;91830.50;;;24.86
72405;BMP280;60395;52.020;113.548;2022-09-03T05:27:17;91831.84;;;24.93
72405;BMP280;60395;52.020;113.548;2022-09-03T05:30:20;91828.72;;;25.06
72405;BMP280;60395;52.020;113.548;2022-09-03T05:33:24;91818.53;;;25.36
72405;BMP280;60395;52.020;113.548;2022-09-03T05:36:30;91823.28;;;25.36
72405;BMP280;60395;52.020;113.548;2022-09-03T05:39:33;91813.16;;;25.36
72405;BMP280;60395;52.020;113.548;2022-09-03T05:42:37;91803.47;;;25.39
72405;BMP280;60395;52.020;113.548;2022-09-03T05:45:40;91801.22;;;25.42
72405;BMP280;60395;52.020;113.548;2022-09-03T05:48:44;91802.75;;;25.47
72405;BMP280;60395;52.020;113.548;2022-09-03T05:51:47;91800.03;;;25.47
72405;BMP280;60395;52.020;113.548;2022-09-03T05:54:50;91788.47;;;25.49
72405;BMP280;60395;52.020;113.548;2022-09-03T05:57:53;91784.16;;;25.52
72405;BMP280;60395;52.020;113.548;2022-09-03T06:00:56;91765.88;;;25.46
72405;BMP280;60395;52.020;113.548;2022-09-03T06:04:01;91770.63;;;25.45
72405;BMP280;60395;52.020;113.548;2022-09-03T06:07:05;91773.16;;;25.47
72405;BMP280;60395;52.020;113.548;2022-09-03T06:10:08;91767.31;;;25.45
72405;BMP280;60395;52.020;113.548;2022-09-03T06:13:12;91767.09;;;25.62
72405;BMP280;60395;52.020;113.548;2022-09-03T06:16:15;91772.66;;;25.38
72405;BMP280;60395;52.020;113.548;2022-09-03T06:19:18;91772.06;;;25.23
72405;BMP280;60395;52.020;113.548;2022-09-03T06:22:21;91772.72;;;25.08
72405;BMP280;60395;52.020;113.548;2022-09-03T06:25:28;91770.84;;;24.92
72405;BMP280;60395;52.020;113.548;2022-09-03T06:28:40;91768.63;;;24.94
72405;BMP280;60395;52.020;113.548;2022-09-03T06:31:45;91767.38;;;24.78
72405;BMP280;60395;52.020;113.548;2022-09-03T06:34:50;91760.41;;;24.66
72405;BMP280;60395;52.020;113.548;2022-09-03T06:37:53;91746.63;;;24.55
72405;BMP280;60395;52.020;113.548;2022-09-03T06:40:59;91750.31;;;24.51
72405;BMP280;60395;52.020;113.548;2022-09-03T06:44:06;91740.91;;;24.44
72405;BMP280;60395;52.020;113.548;2022-09-03T06:47:13;91738.28;;;24.35
72405;BMP280;60395;52.020;113.548;2022-09-03T06:50:16;91724.34;;;24.26
72405;BMP280;60395;52.020;113.548;2022-09-03T06:53:22;91722.28;;;24.27
72405;BMP280;60395;52.020;113.548;2022-09-03T06:56:34;91717.19;;;24.31
72405;BMP280;60395;52.020;113.548;2022-09-03T06:59:41;91713.78;;;24.54
72405;BMP280;60395;52.020;113.548;2022-09-03T07:02:45;91711.41;;;24.81
72405;BMP280;60395;52.020;113.548;2022-09-03T07:05:50;91710.50;;;25.06
72405;BMP280;60395;52.020;113.548;2022-09-03T07:08:53;91710.94;;;25.30
72405;BMP280;60395;52.020;113.548;2022-09-03T07:11:57;91696.88;;;25.51
72405;BMP280;60395;52.020;113.548;2022-09-03T07:15:00;91702.53;;;25.62
72405;BMP280;60395;52.020;113.548;2022-09-03T07:18:04;91699.69;;;25.64
72405;BMP280;60395;52.020;113.548;2022-09-03T07:21:12;91702.59;;;25.69
72405;BMP280;60395;52.020;113.548;2022-09-03T07:24:17;91697.69;;;25.71
72405;BMP280;60395;52.020;113.548;2022-09-03T07:27:21;91698.53;;;25.76
72405;BMP280;60395;52.020;113.548;2022-09-03T07:30:24;91701.06;;;25.85
72405;BMP280;60395;52.020;113.548;2022-09-03T07:33:28;91696.91;;;26.07
72405;BMP280;60395;52.020;113.548;2022-09-03T07:36:46;91695.44;;;26.37
72405;BMP280;60395;52.020;113.548;2022-09-03T07:39:51;91687.56;;;26.41
72405;BMP280;60395;52.020;113.548;2022-09-03T07:42:58;91682.84;;;26.48
72405;BMP280;60395;52.020;113.548;2022-09-03T07:46:06;91680.78;;;26.49
72405;BMP280;60395;52.020;113.548;2022-09-03T07:49:10;91678.31;;;26.53
72405;BMP280;60395;52.020;113.548;2022-09-03T07:52:13;91677.25;;;26.50
72405;BMP280;60395;52.020;113.548;2022-09-03T07:55:19;91691.75;;;26.47
72405;BMP280;60395;52.020;113.548;2022-09-03T07:58:22;91684.09;;;26.43
72405;BMP280;60395;52.020;113.548;2022-09-03T08:01:27;91679.50;;;26.41
72405;BMP280;60395;52.020;113.548;2022-09-03T08:04:32;91686.28;;;26.33
72405;BMP280;60395;52.020;113.548;2022-09-03T08:07:37;91678.41;;;26.31
72405;BMP280;60395;52.020;113.548;2022-09-03T08:10:42;91676.09;;;26.27
72405;BMP280;60395;52.020;113.548;2022-09-03T08:13:48;91669.50;;;26.26
72405;BMP280;60395;52.020;113.548;2022-09-03T08:16:55;91699.59;;;26.07
72405;BMP280;60395;52.020;113.548;2022-09-03T08:19:58;91705.53;;;25.73
72405;BMP280;60395;52.020;113.548;2022-09-03T08:23:02;91697.88;;;25.47
72405;BMP280;60395;52.020;113.548;2022-09-03T08:26:06;91706.00;;;25.32
72405;BMP280;60395;52.020;113.548;2022-09-03T08:29:09;91710.44;;;25.21
72405;BMP280;60395;52.020;113.548;2022-09-03T08:32:12;91714.16;;;25.02
72405;BMP280;60395;52.020;113.548;2022-09-03T08:35:15;91711.00;;;24.78
72405;BMP280;60395;52.020;113.548;2022-09-03T08:38:18;91713.59;;;24.56
72405;BMP280;60395;52.020;113.548;2022-09-03T08:44:59;91712.19;;;24.27
72405;BMP280;60395;52.020;113.548;2022-09-03T08:48:17;91723.53;;;24.13
72405;BMP280;60395;52.020;113.548;2022-09-03T08:51:26;91718.94;;;23.96
72405;BMP280;60395;52.020;113.548;2022-09-03T08:54:31;91733.69;;;23.88
72405;BMP280;60395;52.020;113.548;2022-09-03T08:57:40;91750.44;;;23.80
72405;BMP280;60395;52.020;113.548;2022-09-03T09:00:49;91763.00;;;23.67
72405;BMP280;60395;52.020;113.548;2022-09-03T09:07:36;91778.06;;;23.55
72405;BMP280;60395;52.020;113.548;2022-09-03T09:10:53;91777.94;;;23.49
72405;BMP280;60395;52.020;113.548;2022-09-03T09:14:06;91787.72;;;23.44
72405;BMP280;60395;52.020;113.548;2022-09-03T09:20:53;91807.97;;;23.34
72405;BMP280;60395;52.020;113.548;2022-09-03T09:24:09;91825.06;;;23.13
72405;BMP280;60395;52.020;113.548;2022-09-03T09:27:15;91829.06;;;22.97
72405;BMP280;60395;52.020;113.548;2022-09-03T09:30:18;91823.41;;;22.84
72405;BMP280;60395;52.020;113.548;2022-09-03T09:33:22;91817.16;;;22.71
72405;BMP280;60395;52.020;113.548;2022-09-03T09:36:27;91821.59;;;22.40
72405;BMP280;60395;52.020;113.548;2022-09-03T09:39:30;91822.06;;;22.17
72405;BMP280;60395;52.020;113.548;2022-09-03T09:42:33;91808.69;;;22.00
72405;BMP280;60395;52.020;113.548;2022-09-03T09:45:44;91799.09;;;21.86
72405;BMP280;60395;52.020;113.548;2022-09-03T09:48:56;91786.81;;;21.72
72405;BMP280;60395;52.020;113.548;2022-09-03T09:52:01;91780.31;;;21.51
72405;BMP280;60395;52.020;113.548;2022-09-03T09:55:08;91774.59;;;21.30
72405;BMP280;60395;52.020;113.548;2022-09-03T09:58:12;91771.59;;;21.17
72405;BMP280;60395;52.020;113.548;2022-09-03T10:01:21;91772.91;;;20.98
72405;BMP280;60395;52.020;113.548;2022-09-03T10:04:29;91789.66;;;20.88
72405;BMP280;60395;52.020;113.548;2022-09-03T10:07:34;91803.88;;;20.76
72405;BMP280;60395;52.020;113.548;2022-09-03T10:10:43;91816.69;;;20.65
72405;BMP280;60395;52.020;113.548;2022-09-03T10:13:51;91825.56;;;20.53
72405;BMP280;60395;52.020;113.548;2022-09-03T10:21:14;91853.72;;;20.42
72405;BMP280;60395;52.020;113.548;2022-09-03T10:24:26;91890.19;;;20.35
72405;BMP280;60395;52.020;113.548;2022-09-03T10:27:30;91903.97;;;20.28
72405;BMP280;60395;52.020;113.548;2022-09-03T10:40:41;91950.56;;;20.00
72405;BMP280;60395;52.020;113.548;2022-09-03T10:47:32;91953.81;;;19.71
72405;BMP280;60395;52.020;113.548;2022-09-03T10:54:06;91975.81;;;19.39
72405;BMP280;60395;52.020;113.548;2022-09-03T11:00:33;92000.00;;;19.14
72405;BMP280;60395;52.020;113.548;2022-09-03T11:04:16;92003.31;;;19.04
72405;BMP280;60395;52.020;113.548;2022-09-03T11:07:27;92015.09;;;18.96
72405;BMP280;60395;52.020;113.548;2022-09-03T11:10:38;92026.81;;;18.78
72405;BMP280;60395;52.020;113.548;2022-09-03T11:13:51;92025.41;;;18.58
72405;BMP280;60395;52.020;113.548;2022-09-03T11:17:05;92030.56;;;18.50
72405;BMP280;60395;52.020;113.548;2022-09-03T11:20:21;92032.97;;;18.54
72405;BMP280;60395;52.020;113.548;2022-09-03T11:23:24;92026.53;;;18.61
72405;BMP280;60395;52.020;113.548;2022-09-03T11:26:29;92027.91;;;18.60
72405;BMP280;60395;52.020;113.548;2022-09-03T11:29:40;92036.03;;;18.58
72405;BMP280;60395;52.020;113.548;2022-09-03T11:32:53;92048.16;;;18.55
72405;BMP280;60395;52.020;113.548;2022-09-03T11:35:59;92043.19;;;18.49
72405;BMP280;60395;52.020;113.548;2022-09-03T11:39:12;92049.69;;;18.52
72405;BMP280;60395;52.020;113.548;2022-09-03T11:42:37;92036.16;;;18.33
72405;BMP280;60395;52.020;113.548;2022-09-03T11:45:41;92038.75;;;18.22
72405;BMP280;60395;52.020;113.548;2022-09-03T11:48:46;92057.72;;;18.16
72405;BMP280;60395;52.020;113.548;2022-09-03T11:51:58;92062.53;;;18.14
72405;BMP280;60395;52.020;113.548;2022-09-03T11:55:02;92072.00;;;18.11
72405;BMP280;60395;52.020;113.548;2022-09-03T11:58:19;92078.84;;;18.08
72405;BMP280;60395;52.020;113.548;2022-09-03T12:01:26;92089.56;;;18.06
72405;BMP280;60395;52.020;113.548;2022-09-03T12:04:41;92095.63;;;18.04
72405;BMP280;60395;52.020;113.548;2022-09-03T12:11:23;92098.22;;;17.94
72405;BMP280;60395;52.020;113.548;2022-09-03T12:18:09;92113.22;;;17.87
72405;BMP280;60395;52.020;113.548;2022-09-03T12:21:24;92113.53;;;17.81
72405;BMP280;60395;52.020;113.548;2022-09-03T12:24:27;92104.66;;;17.74
72405;BMP280;60395;52.020;113.548;2022-09-03T12:27:45;92110.19;;;17.70
72405;BMP280;60395;52.020;113.548;2022-09-03T12:30:52;92119.22;;;17.62
72405;BMP280;60395;52.020;113.548;2022-09-03T12:37:00;92103.31;;;17.49
72405;BMP280;60395;52.020;113.548;2022-09-03T12:40:04;92104.28;;;17.44
72405;BMP280;60395;52.020;113.548;2022-09-03T12:43:14;92108.50;;;17.39
72405;BMP280;60395;52.020;113.548;2022-09-03T12:46:38;92137.19;;;17.36
72405;BMP280;60395;52.020;113.548;2022-09-03T12:49:44;92128.56;;;17.36
72405;BMP280;60395;52.020;113.548;2022-09-03T12:53:00;92122.00;;;17.35
72405;BMP280;60395;52.020;113.548;2022-09-03T12:56:03;92128.25;;;17.29
72405;BMP280;60395;52.020;113.548;2022-09-03T12:59:13;92117.97;;;17.23
72405;BMP280;60395;52.020;113.548;2022-09-03T13:05:58;92122.66;;;17.10
72405;BMP280;60395;52.020;113.548;2022-09-03T13:09:05;92134.28;;;17.02
72405;BMP280;60395;52.020;113.548;2022-09-03T13:12:28;92134.72;;;16.94
72405;BMP280;60395;52.020;113.548;2022-09-03T13:15:34;92145.81;;;16.84
72405;BMP280;60395;52.020;113.548;2022-09-03T13:18:47;92138.09;;;16.80
72405;BMP280;60395;52.020;113.548;2022-09-03T13:29:36;92142.25;;;16.63
72405;BMP280;60395;52.020;113.548;2022-09-03T13:36:19;92146.78;;;16.52
72405;BMP280;60395;52.020;113.548;2022-09-03T13:42:35;92157.16;;;16.43
72405;BMP280;60395;52.020;113.548;2022-09-03T13:49:07;92170.63;;;16.39
72405;BMP280;60395;52.020;113.548;2022-09-03T13:52:55;92170.06;;;16.36
72405;BMP280;60395;52.020;113.548;2022-09-03T13:56:18;92167.06;;;16.30
72405;BMP280;60395;52.020;113.548;2022-09-03T13:59:28;92176.13;;;16.20
72405;BMP280;60395;52.020;113.548;2022-09-03T14:02:52;92168.66;;;16.10
72405;BMP280;60395;52.020;113.548;2022-09-03T14:09:53;92167.59;;;15.91
72405;BMP280;60395;52.020;113.548;2022-09-03T14:20:07;92160.13;;;15.66
72405;BMP280;60395;52.020;113.548;2022-09-03T14:23:58;92160.47;;;15.58
72405;BMP280;60395;52.020;113.548;2022-09-03T14:27:03;92161.69;;;15.46
72405;BMP280;60395;52.020;113.548;2022-09-03T14:40:29;92191.16;;;15.07
72405;BMP280;60395;52.020;113.548;2022-09-03T14:51:16;92188.88;;;14.82
72405;BMP280;60395;52.020;113.548;2022-09-03T14:54:39;92187.38;;;14.71
72405;BMP280;60395;52.020;113.548;2022-09-03T15:00:49;92199.81;;;14.74
72405;BMP280;60395;52.020;113.548;2022-09-03T15:07:40;92196.38;;;14.61
72405;BMP280;60395;52.020;113.548;2022-09-03T15:10:49;92187.56;;;14.50
72405;BMP280;60395;52.020;113.548;2022-09-03T15:14:14;92191.09;;;14.44
72405;BMP280;60395;52.020;113.548;2022-09-03T15:17:53;92190.59;;;14.40
72405;BMP280;60395;52.020;113.548;2022-09-03T15:38:08;92187.53;;;14.17
72405;BMP280;60395;52.020;113.548;2022-09-03T15:41:40;92175.22;;;14.11
72405;BMP280;60395;52.020;113.548;2022-09-03T15:44:49;92172.34;;;14.00
72405;BMP280;60395;52.020;113.548;2022-09-03T15:47:55;92162.72;;;13.93
72405;BMP280;60395;52.020;113.548;2022-09-03T15:54:22;92160.78;;;13.75
72405;BMP280;60395;52.020;113.548;2022-09-03T15:57:54;92165.56;;;13.70
72405;BMP280;60395;52.020;113.548;2022-09-03T16:02:06;92169.09;;;13.65
72405;BMP280;60395;52.020;113.548;2022-09-03T16:04:55;92161.28;;;13.61
72405;BMP280;60395;52.020;113.548;2022-09-03T16:08:56;92152.88;;;13.56
72405;BMP280;60395;52.020;113.548;2022-09-03T16:18:27;92173.31;;;13.39
72405;BMP280;60395;52.020;113.548;2022-09-03T16:21:59;92181.34;;;13.35
72405;BMP280;60395;52.020;113.548;2022-09-03T16:25:28;92183.72;;;13.24
72405;BMP280;60395;52.020;113.548;2022-09-03T16:28:53;92183.28;;;13.18
72405;BMP280;60395;52.020;113.548;2022-09-03T16:32:25;92193.38;;;13.11
72405;BMP280;60395;52.020;113.548;2022-09-03T16:39:24;92190.53;;;12.99
72405;BMP280;60395;52.020;113.548;2022-09-03T16:49:15;92200.44;;;12.77
72405;BMP280;60395;52.020;113.548;2022-09-03T16:55:58;92212.81;;;12.62
72405;BMP280;60395;52.020;113.548;2022-09-03T17:03:12;92207.66;;;12.58
72405;BMP280;60395;52.020;113.548;2022-09-03T17:10:16;92208.75;;;12.45
72405;BMP280;60395;52.020;113.548;2022-09-03T17:20:43;92221.16;;;12.27
72405;BMP280;60395;52.020;113.548;2022-09-03T17:30:48;92212.22;;;12.18
72405;BMP280;60395;52.020;113.548;2022-09-03T17:33:56;92200.44;;;12.15
72405;BMP280;60395;52.020;113.548;2022-09-03T17:44:03;92207.31;;;12.06
72405;BMP280;60395;52.020;113.548;2022-09-03T17:48:03;92203.44;;;12.03
72405;BMP280;60395;52.020;113.548;2022-09-03T17:57:55;92198.84;;;11.81
72405;BMP280;60395;52.020;113.548;2022-09-03T18:04:42;92201.00;;;11.74
72405;BMP280;60395;52.020;113.548;2022-09-03T18:08:12;92205.69;;;11.72
72405;BMP280;60395;52.020;113.548;2022-09-03T18:11:40;92214.81;;;11.75
72405;BMP280;60395;52.020;113.548;2022-09-03T18:14:55;92202.94;;;11.76
72405;BMP280;60395;52.020;113.548;2022-09-03T18:18:07;92205.56;;;11.76
72405;BMP280;60395;52.020;113.548;2022-09-03T18:21:19;92212.78;;;11.77
72405;BMP280;60395;52.020;113.548;2022-09-03T18:24:46;92212.78;;;11.77
72405;BMP280;60395;52.020;113.548;2022-09-03T18:28:11;92208.16;;;11.78
72405;BMP280;60395;52.020;113.548;2022-09-03T18:31:34;92209.50;;;11.77
72405;BMP280;60395;52.020;113.548;2022-09-03T18:34:56;92206.88;;;11.77
72405;BMP280;60395;52.020;113.548;2022-09-03T18:38:26;92204.78;;;11.79
72405;BMP280;60395;52.020;113.548;2022-09-03T18:49:34;92207.56;;;11.75
72405;BMP280;60395;52.020;113.548;2022-09-03T18:53:03;92208.25;;;11.74
72405;BMP280;60395;52.020;113.548;2022-09-03T18:56:39;92211.66;;;11.70
72405;BMP280;60395;52.020;113.548;2022-09-03T19:03:42;92207.16;;;11.67
72405;BMP280;60395;52.020;113.548;2022-09-03T19:07:10;92209.31;;;11.60
72405;BMP280;60395;52.020;113.548;2022-09-03T19:10:54;92213.97;;;11.58
72405;BMP280;60395;52.020;113.548;2022-09-03T19:14:35;92218.06;;;11.53
72405;BMP280;60395;52.020;113.548;2022-09-03T19:22:05;92215.69;;;11.43
72405;BMP280;60395;52.020;113.548;2022-09-03T19:25:29;92223.72;;;11.39
72405;BMP280;60395;52.020;113.548;2022-09-03T19:28:55;92221.81;;;11.35
72405;BMP280;60395;52.020;113.548;2022-09-03T19:32:28;92219.91;;;11.34
72405;BMP280;60395;52.020;113.548;2022-09-03T19:47:02;92222.16;;;11.23
72405;BMP280;60395;52.020;113.548;2022-09-03T19:50:28;92212.97;;;11.22
72405;BMP280;60395;52.020;113.548;2022-09-03T19:53:53;92226.31;;;11.14
72405;BMP280;60395;52.020;113.548;2022-09-03T19:57:16;92219.94;;;11.07
72405;BMP280;60395;52.020;113.548;2022-09-03T20:00:39;92220.03;;;11.03
72405;BMP280;60395;52.020;113.548;2022-09-03T20:04:09;92218.19;;;10.97
72405;BMP280;60395;52.020;113.548;2022-09-03T20:07:33;92217.56;;;10.97
72405;BMP280;60395;52.020;113.548;2022-09-03T20:10:56;92213.72;;;10.94
72405;BMP280;60395;52.020;113.548;2022-09-03T20:14:00;92217.56;;;10.97
72405;BMP280;60395;52.020;113.548;2022-09-03T20:21:14;92217.00;;;10.94
72405;BMP280;60395;52.020;113.548;2022-09-03T20:31:16;92228.56;;;10.76
72405;BMP280;60395;52.020;113.548;2022-09-03T20:44:49;92225.00;;;10.61
72405;BMP280;60395;52.020;113.548;2022-09-03T20:48:14;92218.63;;;10.54
72405;BMP280;60395;52.020;113.548;2022-09-03T20:51:32;92213.94;;;10.57
72405;BMP280;60395;52.020;113.548;2022-09-03T21:05:12;92214.13;;;10.49
72405;BMP280;60395;52.020;113.548;2022-09-03T21:11:32;92216.09;;;10.48
72405;BMP280;60395;52.020;113.548;2022-09-03T21:14:38;92215.53;;;10.46
72405;BMP280;60395;52.020;113.548;2022-09-03T21:17:54;92219.44;;;10.47
72405;BMP280;60395;52.020;113.548;2022-09-03T21:24:18;92224.78;;;10.43
72405;BMP280;60395;52.020;113.548;2022-09-03T21:27:23;92220.00;;;10.51
72405;BMP280;60395;52.020;113.548;2022-09-03T21:30:29;92233.28;;;10.45
72405;BMP280;60395;52.020;113.548;2022-09-03T21:33:37;92220.84;;;10.42
72405;BMP280;60395;52.020;113.548;2022-09-03T21:36:42;92226.88;;;10.38
72405;BMP280;60395;52.020;113.548;2022-09-03T21:39:55;92222.91;;;10.39
72405;BMP280;60395;52.020;113.548;2022-09-03T21:43:23;92225.66;;;10.33
72405;BMP280;60395;52.020;113.548;2022-09-03T21:46:34;92226.41;;;10.30
72405;BMP280;60395;52.020;113.548;2022-09-03T21:52:58;92215.94;;;10.28
72405;BMP280;60395;52.020;113.548;2022-09-03T22:02:32;92217.88;;;10.29
72405;BMP280;60395;52.020;113.548;2022-09-03T22:05:49;92210.59;;;10.32
72405;BMP280;60395;52.020;113.548;2022-09-03T22:09:10;92216.41;;;10.36
72405;BMP280;60395;52.020;113.548;2022-09-03T22:15:45;92209.81;;;10.37
72405;BMP280;60395;52.020;113.548;2022-09-03T22:18:53;92206.50;;;10.39
72405;BMP280;60395;52.020;113.548;2022-09-03T22:21:57;92205.81;;;10.40
72405;BMP280;60395;52.020;113.548;2022-09-03T22:25:54;92202.53;;;10.40
72405;BMP280;60395;52.020;113.548;2022-09-03T22:35:39;92212.81;;;10.50
72405;BMP280;60395;52.020;113.548;2022-09-03T22:39:01;92215.38;;;10.52
72405;BMP280;60395;52.020;113.548;2022-09-03T22:42:12;92221.22;;;10.54
72405;BMP280;60395;52.020;113.548;2022-09-03T22:55:16;92214.50;;;10.61
72405;BMP280;60395;52.020;113.548;2022-09-03T22:58:27;92207.28;;;10.62
72405;BMP280;60395;52.020;113.548;2022-09-03T23:01:43;92210.56;;;10.62
72405;BMP280;60395;52.020;113.548;2022-09-03T23:08:21;92218.22;;;10.70
72405;BMP280;60395;52.020;113.548;2022-09-03T23:11:32;92221.50;;;10.71
72405;BMP280;60395;52.020;113.548;2022-09-03T23:14:40;92222.16;;;10.71
72405;BMP280;60395;52.020;113.548;2022-09-03T23:17:59;92224.78;;;10.71
72405;BMP280;60395;52.020;113.548;2022-09-03T23:21:17;92220.09;;;10.74
72405;BMP280;60395;52.020;113.548;2022-09-03T23:24:46;92220.03;;;10.78
72405;BMP280;60395;52.020;113.548;2022-09-03T23:27:56;92219.91;;;10.82
72405;BMP280;60395;52.020;113.548;2022-09-03T23:34:19;92215.88;;;10.85
72405;BMP280;60395;52.020;113.548;2022-09-03T23:40:49;92199.88;;;10.95
72405;BMP280;60395;52.020;113.548;2022-09-03T23:44:02;92204.22;;;11.05
